Terminal Aerodrome Forecast
Issued by NWS Tulsa, OK

Home | Current Version | Previous Version | Text Only | Print | Product List | Glossary On
Versions: 1 2 3 4 5 6 7 8 9 10 11 12 13 14
000
FTUS44 KTSA 210253 AAB
TAFFSM
TAF AMD
KFSM 210253Z 2103/2124 12004KT P6SM BKN070 BKN080 OVC110
     FM210400 VRB03KT P6SM FEW250
     FM211500 20007KT P6SM FEW050=

USA.gov is the U.S. government's official web portal to all federal, state and local government web resources and services.